createdAt,value
2022-10-17T00:02:12.771Z,101861.75
2022-10-17T00:04:39.458Z,101863.09
2022-10-17T00:07:06.003Z,101866.06
2022-10-17T00:09:32.482Z,101865.25
2022-10-17T00:11:59.149Z,101864.72
2022-10-17T00:14:25.640Z,101863.16
2022-10-17T00:16:52.152Z,101855.41
2022-10-17T00:19:18.751Z,101841.25
2022-10-17T00:21:45.283Z,101841.53
2022-10-17T00:24:11.858Z,101837.28
2022-10-17T00:26:38.415Z,101842.09
2022-10-17T00:29:04.948Z,101835.47
2022-10-17T00:31:31.858Z,101833.84
2022-10-17T00:33:58.526Z,101831.44
2022-10-17T00:36:28.081Z,101832.56
2022-10-17T00:38:57.756Z,101836.28
2022-10-17T00:41:29.203Z,101832.03
2022-10-17T00:44:30.186Z,101833.09
2022-10-17T00:47:04.958Z,101833.41
2022-10-17T00:49:35.760Z,101829.13
2022-10-17T00:52:06.254Z,101828.34
2022-10-17T00:54:40.908Z,101824.88
2022-10-17T00:57:07.610Z,101831.00
2022-10-17T00:59:36.086Z,101829.41
2022-10-17T01:02:08.919Z,101823.53
2022-10-17T01:04:40.670Z,101826.22
2022-10-17T01:07:07.197Z,101824.91
2022-10-17T01:09:34.352Z,101820.66
2022-10-17T01:12:09.548Z,101824.41
2022-10-17T01:14:47.040Z,101812.91
2022-10-17T01:17:22.401Z,101807.56
2022-10-17T01:20:10.856Z,101805.69
2022-10-17T01:22:49.693Z,101810.25
2022-10-17T01:25:29.772Z,101807.56
2022-10-17T01:28:32.947Z,101800.63
2022-10-17T01:31:16.678Z,101812.13
2022-10-17T01:34:01.249Z,101800.94
2022-10-17T01:36:39.248Z,101795.56
2022-10-17T01:39:17.272Z,101793.97
2022-10-17T01:41:52.801Z,101787.56
2022-10-17T01:44:34.554Z,101795.56
2022-10-17T01:47:06.697Z,101799.03
2022-10-17T01:49:35.556Z,101793.97
2022-10-17T01:52:09.594Z,101790.50
2022-10-17T01:54:47.624Z,101784.38
2022-10-17T01:57:29.617Z,101785.16
2022-10-17T01:59:57.314Z,101788.09
2022-10-17T02:02:26.393Z,101775.84
2022-10-17T02:04:55.586Z,101767.81
2022-10-17T02:07:22.080Z,101763.53
2022-10-17T02:09:48.818Z,101751.25
2022-10-17T02:12:30.646Z,101756.31
2022-10-17T02:15:02.943Z,101738.97
2022-10-17T02:18:00.543Z,101745.59
2022-10-17T02:20:33.018Z,101753.63
2022-10-17T02:25:50.176Z,101738.69
2022-10-17T02:28:22.198Z,101745.59
2022-10-17T02:30:59.134Z,101742.94
2022-10-17T02:33:31.839Z,101741.88
2022-10-17T02:36:04.751Z,101745.34
2022-10-17T02:38:32.918Z,101734.63
2022-10-17T02:41:01.136Z,101739.72
2022-10-17T02:43:28.689Z,101738.91
2022-10-17T02:45:56.918Z,101727.41
2022-10-17T02:48:37.348Z,101729.81
2022-10-17T02:51:24.032Z,101731.69
2022-10-17T02:54:09.118Z,101734.38
2022-10-17T02:56:43.573Z,101732.47
2022-10-17T02:59:14.210Z,101734.38
2022-10-17T03:01:41.865Z,101736.25
2022-10-17T03:04:14.074Z,101742.38
2022-10-17T03:06:41.450Z,101752.78
2022-10-17T03:09:08.406Z,101743.41
2022-10-17T03:11:36.157Z,101734.09
2022-10-17T03:14:02.992Z,101746.59
2022-10-17T03:16:29.547Z,101739.34
2022-10-17T03:18:56.525Z,101738.28
2022-10-17T03:21:23.160Z,101736.91
2022-10-17T03:23:49.695Z,101741.97
2022-10-17T03:26:16.763Z,101744.66
2022-10-17T03:28:43.353Z,101741.38
2022-10-17T03:31:14.299Z,101741.91
2022-10-17T03:33:40.959Z,101738.16
2022-10-17T03:36:17.034Z,101749.38
2022-10-17T03:38:44.750Z,101750.16
2022-10-17T03:41:11.679Z,101750.16
2022-10-17T03:43:39.561Z,101744.53
2022-10-17T03:46:07.226Z,101750.34
2022-10-17T03:48:34.247Z,101755.13
2022-10-17T03:51:02.460Z,101761.00
2022-10-17T03:53:29.164Z,101762.28
2022-10-17T03:55:58.878Z,101759.06
2022-10-17T03:58:25.346Z,101757.19
2022-10-17T04:00:52.771Z,101752.84
2022-10-17T04:03:20.548Z,101752.06
2022-10-17T04:05:46.963Z,101753.34
2022-10-17T04:08:13.459Z,101751.19
2022-10-17T04:10:40.114Z,101750.38
2022-10-17T04:13:06.767Z,101755.75
2022-10-17T04:15:33.404Z,101764.78
2022-10-17T04:17:59.878Z,101760.78
2022-10-17T04:20:26.985Z,101757.53
2022-10-17T04:22:53.497Z,101761.00
2022-10-17T04:25:20.401Z,101759.44
2022-10-17T04:27:46.987Z,101774.38
2022-10-17T04:30:13.544Z,101762.63
2022-10-17T04:32:40.803Z,101762.91
2022-10-17T04:35:07.673Z,101764.19
2022-10-17T04:37:34.211Z,101762.63
2022-10-17T04:40:00.741Z,101764.78
2022-10-17T04:42:30.843Z,101767.16
2022-10-17T04:44:59.989Z,101764.19
2022-10-17T04:47:26.972Z,101782.66
2022-10-17T04:49:53.686Z,101779.69
2022-10-17T04:52:20.248Z,101788.78
2022-10-17T04:54:46.999Z,101793.06
2022-10-17T04:57:13.933Z,101795.16
2022-10-17T04:59:41.605Z,101799.13
2022-10-17T05:02:08.160Z,101798.84
2022-10-17T05:04:35.924Z,101802.31
2022-10-17T05:07:02.694Z,101796.66
2022-10-17T05:09:29.380Z,101794.78
2022-10-17T05:11:56.059Z,101798.75
2022-10-17T05:14:22.628Z,101793.41
2022-10-17T05:16:49.581Z,101795.00
2022-10-17T05:19:17.187Z,101796.91
2022-10-17T05:21:43.798Z,101790.72
2022-10-17T05:24:13.603Z,101792.09
2022-10-17T05:26:40.475Z,101798.72
2022-10-17T05:29:07.129Z,101798.72
2022-10-17T05:31:33.756Z,101792.28
2022-10-17T05:34:02.344Z,101797.34
2022-10-17T05:36:29.292Z,101806.16
2022-10-17T05:38:56.001Z,101808.28
2022-10-17T05:41:23.905Z,101815.22
2022-10-17T05:43:50.816Z,101813.34
2022-10-17T05:46:17.661Z,101816.53
2022-10-17T05:48:44.391Z,101821.56
2022-10-17T05:51:15.719Z,101820.00
2022-10-17T05:53:42.686Z,101806.63
2022-10-17T05:56:11.508Z,101809.81
2022-10-17T05:59:00.673Z,101804.16
2022-10-17T06:01:27.985Z,101799.88
2022-10-17T06:03:54.508Z,101800.66
2022-10-17T06:06:21.588Z,101803.34
2022-10-17T06:08:48.107Z,101812.19
2022-10-17T06:11:14.868Z,101814.88
2022-10-17T06:13:41.537Z,101807.34
2022-10-17T06:16:08.343Z,101822.59
2022-10-17T06:18:35.090Z,101824.69
2022-10-17T06:21:04.181Z,101816.66
2022-10-17T06:23:31.161Z,101811.59
2022-10-17T06:26:02.048Z,101812.59
2022-10-17T06:28:28.824Z,101827.56
2022-10-17T06:30:55.742Z,101836.72
2022-10-17T06:33:25.775Z,101842.84
2022-10-17T06:35:58.854Z,101846.81
2022-10-17T06:38:25.541Z,101847.06
2022-10-17T06:40:54.103Z,101844.50
2022-10-17T06:43:25.582Z,101851.09
2022-10-17T06:45:54.527Z,101842.91
2022-10-17T06:48:21.048Z,101852.94
2022-10-17T06:50:47.735Z,101860.03
2022-10-17T06:53:14.268Z,101866.31
2022-10-17T06:55:41.010Z,101869.88
2022-10-17T06:58:07.545Z,101883.13
2022-10-17T07:00:34.397Z,101875.50
2022-10-17T07:03:01.017Z,101870.56
2022-10-17T07:05:29.647Z,101880.63
2022-10-17T07:07:56.249Z,101883.72
2022-10-17T07:10:23.366Z,101879.34
2022-10-17T07:12:49.943Z,101890.47
2022-10-17T07:15:16.606Z,101891.97
2022-10-17T07:17:43.554Z,101896.16
2022-10-17T07:20:10.750Z,101894.19
2022-10-17T07:22:37.307Z,101891.38
2022-10-17T07:25:04.323Z,101910.06
2022-10-17T07:27:31.103Z,101898.72
2022-10-17T07:29:57.837Z,101888.97
2022-10-17T07:32:24.393Z,101889.38
2022-10-17T07:34:50.893Z,101885.81
2022-10-17T07:37:17.376Z,101894.03
2022-10-17T07:39:44.068Z,101901.50
2022-10-17T07:42:10.810Z,101911.63
2022-10-17T07:44:37.318Z,101903.28
2022-10-17T07:47:04.401Z,101900.78
2022-10-17T07:49:31.868Z,101910.91
2022-10-17T07:51:58.696Z,101916.00
2022-10-17T07:54:25.429Z,101933.09
2022-10-17T07:56:52.045Z,101946.22
2022-10-17T07:59:18.747Z,101984.63
2022-10-17T08:01:45.476Z,102012.47
2022-10-17T08:04:12.049Z,102030.97
2022-10-17T08:06:41.085Z,102036.34
2022-10-17T08:09:07.717Z,102043.84
2022-10-17T08:11:36.441Z,102053.25
2022-10-17T08:14:03.482Z,102051.41
2022-10-17T08:16:30.418Z,102048.72
2022-10-17T08:18:57.448Z,102046.28
2022-10-17T08:21:24.062Z,102068.88
2022-10-17T08:23:50.828Z,102054.88
2022-10-17T08:26:18.958Z,102033.97
2022-10-17T08:28:46.936Z,102032.31
2022-10-17T08:31:21.167Z,102037.66
2022-10-17T08:33:50.386Z,102033.59
2022-10-17T08:36:19.461Z,102045.31
2022-10-17T08:38:50.339Z,102055.78
2022-10-17T08:41:45.460Z,102058.66
2022-10-17T08:44:30.526Z,102089.81
2022-10-17T08:47:02.526Z,102088.72
2022-10-17T08:49:47.921Z,102107.22
2022-10-17T08:52:34.279Z,102114.69
2022-10-17T08:55:01.046Z,102122.75
2022-10-17T08:57:30.715Z,102122.97
2022-10-17T08:59:58.811Z,102117.09
2022-10-17T09:02:56.648Z,102100.34
2022-10-17T09:05:30.277Z,102073.78
2022-10-17T09:08:28.899Z,102063.22
2022-10-17T09:10:59.091Z,102052.97
2022-10-17T09:13:38.285Z,102037.06
2022-10-17T09:16:39.978Z,102028.38
2022-10-17T09:19:28.558Z,102028.56
2022-10-17T09:22:17.416Z,102039.53
2022-10-17T09:24:55.678Z,102036.50
2022-10-17T09:27:40.591Z,102048.25
2022-10-17T09:30:17.200Z,102052.06
2022-10-17T09:33:00.093Z,102088.00
2022-10-17T09:35:28.898Z,102091.47
2022-10-17T09:37:55.550Z,102103.00
2022-10-17T09:40:29.077Z,102118.84
2022-10-17T09:42:55.736Z,102110.91
2022-10-17T09:45:27.225Z,102090.19
2022-10-17T09:48:11.498Z,102076.75
2022-10-17T09:50:38.522Z,102066.78
2022-10-17T09:53:17.152Z,102053.81
2022-10-17T09:55:48.321Z,102064.28
2022-10-17T09:58:14.929Z,102062.59
2022-10-17T10:00:44.971Z,102067.63
2022-10-17T10:03:26.125Z,102065.94
2022-10-17T10:06:03.451Z,102075.31
2022-10-17T10:08:35.646Z,102102.06
2022-10-17T10:11:07.854Z,102112.53
2022-10-17T10:13:39.147Z,102113.03
2022-10-17T10:16:30.084Z,102118.13
2022-10-17T10:18:56.788Z,102117.00
2022-10-17T10:21:27.632Z,102136.31
2022-10-17T10:24:05.277Z,102142.19
2022-10-17T10:26:44.979Z,102155.34
2022-10-17T10:29:26.764Z,102170.88
2022-10-17T10:31:56.865Z,102172.47
2022-10-17T10:34:31.125Z,102180.84
2022-10-17T10:37:02.287Z,102179.44
2022-10-17T10:39:41.754Z,102184.03
2022-10-17T10:42:21.413Z,102188.63
2022-10-17T10:44:49.828Z,102180.25
2022-10-17T10:47:22.557Z,102186.44
2022-10-17T10:49:52.705Z,102191.00
2022-10-17T10:52:29.415Z,102188.00
2022-10-17T10:55:21.133Z,102184.22
2022-10-17T10:57:49.699Z,102184.53
2022-10-17T11:00:21.257Z,102200.66
2022-10-17T11:03:01.800Z,102201.16
2022-10-17T11:05:31.172Z,102201.66
2022-10-17T11:08:11.969Z,102212.63
2022-10-17T11:10:48.294Z,102214.97
2022-10-17T11:13:22.636Z,102218.41
2022-10-17T11:16:01.249Z,102217.50
2022-10-17T11:18:44.796Z,102218.31
2022-10-17T11:21:19.035Z,102214.72
2022-10-17T11:23:56.628Z,102233.41
2022-10-17T11:26:29.085Z,102231.53
2022-10-17T11:29:02.389Z,102231.53
2022-10-17T11:31:34.624Z,102239.00
2022-10-17T11:34:19.621Z,102250.25
2022-10-17T11:36:57.652Z,102244.19
2022-10-17T11:42:21.933Z,102260.03
2022-10-17T11:44:52.691Z,102262.72
2022-10-17T11:47:55.675Z,102262.72
2022-10-17T11:53:24.666Z,102270.59
2022-10-17T11:55:58.090Z,102272.91
2022-10-17T12:01:09.583Z,102268.81
2022-10-17T12:04:05.210Z,102255.84
2022-10-17T12:07:11.105Z,102259.53
2022-10-17T12:09:43.773Z,102264.00
2022-10-17T12:12:10.345Z,102265.47
2022-10-17T12:14:45.869Z,102266.56
2022-10-17T12:17:39.568Z,102257.28
2022-10-17T12:20:24.906Z,102262.06
2022-10-17T12:22:52.604Z,102267.94
2022-10-17T12:25:22.772Z,102270.94
2022-10-17T12:27:51.267Z,102274.59
2022-10-17T12:30:28.183Z,102277.78
2022-10-17T12:33:22.357Z,102278.47
2022-10-17T12:35:52.914Z,102281.47
2022-10-17T12:38:24.167Z,102280.34
2022-10-17T12:40:56.346Z,102289.75
2022-10-17T12:43:28.834Z,102281.34
2022-10-17T12:45:56.103Z,102292.72
2022-10-17T12:48:35.252Z,102288.63
2022-10-17T12:54:15.227Z,102297.50
2022-10-17T12:56:45.819Z,102288.63
2022-10-17T12:59:24.283Z,102303.09
2022-10-17T13:01:59.420Z,102296.72
2022-10-17T13:04:29.118Z,102301.00
2022-10-17T13:06:58.971Z,102305.09
2022-10-17T13:09:36.214Z,102309.69
2022-10-17T13:12:10.873Z,102310.47
2022-10-17T13:14:41.877Z,102314.88
2022-10-17T13:17:25.972Z,102318.25
2022-10-17T13:19:53.028Z,102321.25
2022-10-17T13:22:22.783Z,102327.63
2022-10-17T13:24:50.955Z,102332.22
2022-10-17T13:27:30.427Z,102337.91
2022-10-17T13:29:59.619Z,102334.13
2022-10-17T13:32:46.376Z,102348.56
2022-10-17T13:40:49.218Z,102361.25
2022-10-17T13:43:21.900Z,102366.94
2022-10-17T13:45:53.612Z,102377.09
2022-10-17T13:48:27.642Z,102371.59
2022-10-17T13:51:02.661Z,102381.47
2022-10-17T13:53:37.341Z,102387.34
2022-10-17T13:56:29.976Z,102389.44
2022-10-17T13:59:00.428Z,102392.94
2022-10-17T14:01:29.314Z,102398.00
2022-10-17T14:04:09.334Z,102397.22
2022-10-17T14:06:53.935Z,102393.09
2022-10-17T14:09:37.683Z,102397.41
2022-10-17T14:12:12.864Z,102396.28
2022-10-17T14:15:08.784Z,102396.78
2022-10-17T14:17:34.230Z,102379.34
2022-10-17T14:20:34.141Z,102393.31
2022-10-17T14:23:17.449Z,102384.13
2022-10-17T14:25:41.618Z,102388.63
2022-10-17T14:28:11.908Z,102387.53
2022-10-17T14:30:56.183Z,102387.41
2022-10-17T14:33:31.491Z,102384.22
2022-10-17T14:36:00.919Z,102387.13
2022-10-17T14:38:29.084Z,102387.00
2022-10-17T14:44:04.828Z,102396.97
2022-10-17T14:46:35.952Z,102391.16
2022-10-17T14:49:24.329Z,102399.25
2022-10-17T14:52:29.712Z,102401.31
2022-10-17T14:58:29.149Z,102404.00
2022-10-17T15:01:11.470Z,102402.13
2022-10-17T15:03:41.174Z,102404.16
2022-10-17T15:06:25.867Z,102404.78
2022-10-17T15:08:52.858Z,102420.13
2022-10-17T15:11:19.784Z,102423.16
2022-10-17T15:13:46.579Z,102425.50
2022-10-17T15:16:18.624Z,102420.13
2022-10-17T15:18:45.402Z,102429.81
2022-10-17T15:21:26.464Z,102432.50
2022-10-17T15:24:02.241Z,102439.63
2022-10-17T15:26:35.786Z,102433.94
2022-10-17T15:29:04.301Z,102438.00
2022-10-17T15:31:33.796Z,102429.13
2022-10-17T15:34:00.491Z,102440.69
2022-10-17T15:36:34.512Z,102438.81
2022-10-17T15:39:02.177Z,102455.59
2022-10-17T15:41:31.480Z,102459.06
2022-10-17T15:43:59.389Z,102456.38
2022-10-17T15:46:29.175Z,102465.88
2022-10-17T15:48:57.686Z,102470.47
2022-10-17T15:51:27.488Z,102470.06
2022-10-17T15:53:54.041Z,102467.66
2022-10-17T15:56:24.503Z,102477.38
2022-10-17T15:58:51.502Z,102470.94
2022-10-17T16:01:23.874Z,102475.84
2022-10-17T16:03:51.428Z,102483.13
2022-10-17T16:06:23.934Z,102479.16
2022-10-17T16:08:51.108Z,102481.94
2022-10-17T16:11:35.484Z,102486.03
2022-10-17T16:14:09.958Z,102485.03
2022-10-17T16:16:36.652Z,102494.03
2022-10-17T16:19:05.789Z,102499.22
2022-10-17T16:21:35.394Z,102506.78
2022-10-17T16:24:02.886Z,102511.38
2022-10-17T16:26:29.859Z,102515.47
2022-10-17T16:28:58.143Z,102515.28
2022-10-17T16:31:28.813Z,102515.88
2022-10-17T16:33:57.654Z,102516.97
2022-10-17T16:36:27.730Z,102518.16
2022-10-17T16:38:54.612Z,102522.53
2022-10-17T16:41:28.492Z,102530.22
2022-10-17T16:43:59.696Z,102534.28
2022-10-17T16:46:28.257Z,102540.78
2022-10-17T16:48:55.445Z,102532.69
2022-10-17T16:51:23.492Z,102538.66
2022-10-17T16:53:52.831Z,102535.47
2022-10-17T16:56:22.750Z,102532.59
2022-10-17T16:58:50.432Z,102532.88
2022-10-17T17:01:24.617Z,102540.44
2022-10-17T17:03:54.536Z,102546.94
2022-10-17T17:06:24.881Z,102546.44
2022-10-17T17:08:51.551Z,102544.59
2022-10-17T17:11:21.691Z,102548.19
2022-10-17T17:13:48.869Z,102559.25
2022-10-17T17:16:19.463Z,102547.47
2022-10-17T17:18:51.972Z,102556.94
2022-10-17T17:21:18.776Z,102555.09
2022-10-17T17:23:45.349Z,102553.47
2022-10-17T17:26:16.186Z,102554.88
2022-10-17T17:28:43.859Z,102563.44
2022-10-17T17:31:16.013Z,102559.19
2022-10-17T17:33:46.932Z,102557.38
2022-10-17T17:36:21.419Z,102564.63
2022-10-17T17:38:50.035Z,102567.91
2022-10-17T17:41:19.217Z,102568.19
2022-10-17T17:43:47.096Z,102568.47
2022-10-17T17:46:16.709Z,102572.78
2022-10-17T17:48:44.838Z,102576.25
2022-10-17T17:51:15.619Z,102579.25
2022-10-17T17:53:43.228Z,102588.91
2022-10-17T17:56:16.831Z,102584.34
2022-10-17T17:58:48.483Z,102579.75
2022-10-17T18:01:20.396Z,102578.22
2022-10-17T18:03:52.230Z,102583.41
2022-10-17T18:06:20.285Z,102596.53
2022-10-17T18:08:49.668Z,102601.91
2022-10-17T18:11:21.979Z,102608.63
2022-10-17T18:13:54.205Z,102607.53
2022-10-17T18:16:22.155Z,102600.06
2022-10-17T18:18:49.019Z,102601.41
2022-10-17T18:21:16.375Z,102604.69
2022-10-17T18:23:45.733Z,102611.47
2022-10-17T18:26:12.954Z,102618.16
2022-10-17T18:31:10.318Z,102628.38
2022-10-17T18:33:36.936Z,102625.41
2022-10-17T18:36:08.983Z,102627.28
2022-10-17T18:38:35.701Z,102628.66
2022-10-17T18:41:04.368Z,102627.09
2022-10-17T18:43:33.300Z,102625.47
2022-10-17T18:46:14.079Z,102624.69
2022-10-17T18:48:44.705Z,102620.69
2022-10-17T18:51:12.547Z,102633.03
2022-10-17T18:53:41.566Z,102634.94
2022-10-17T18:56:09.607Z,102643.00
2022-10-17T18:58:40.995Z,102643.00
2022-10-17T19:01:15.637Z,102640.81
2022-10-17T19:03:43.901Z,102645.09
2022-10-17T19:06:14.817Z,102635.94
2022-10-17T19:08:45.676Z,102645.09
2022-10-17T19:11:15.460Z,102637.03
2022-10-17T19:13:42.931Z,102645.97
2022-10-17T19:16:12.931Z,102648.13
2022-10-17T19:18:39.732Z,102652.22
2022-10-17T19:21:08.710Z,102659.50
2022-10-17T19:23:36.262Z,102664.28
2022-10-17T19:26:10.682Z,102657.50
2022-10-17T19:28:39.409Z,102655.94
2022-10-17T19:31:06.803Z,102656.50
2022-10-17T19:33:34.519Z,102653.31
2022-10-17T19:36:04.773Z,102664.06
2022-10-17T19:38:31.588Z,102662.69
2022-10-17T19:43:26.325Z,102651.47
2022-10-17T19:46:01.902Z,102657.16
2022-10-17T19:48:32.150Z,102657.66
2022-10-17T19:50:59.449Z,102653.38
2022-10-17T19:53:27.873Z,102654.66
2022-10-17T19:55:54.676Z,102662.72
2022-10-17T19:58:21.577Z,102654.66
2022-10-17T20:00:50.034Z,102666.53
2022-10-17T20:03:17.484Z,102666.00
2022-10-17T20:05:45.310Z,102670.88
2022-10-17T20:08:12.516Z,102676.31
2022-10-17T20:10:39.314Z,102673.44
2022-10-17T20:13:06.033Z,102677.56
2022-10-17T20:15:32.908Z,102681.44
2022-10-17T20:18:00.401Z,102685.56
2022-10-17T20:20:27.840Z,102690.47
2022-10-17T20:22:54.652Z,102696.41
2022-10-17T20:25:21.720Z,102696.25
2022-10-17T20:27:48.414Z,102698.44
2022-10-17T20:30:15.565Z,102707.59
2022-10-17T20:32:42.096Z,102698.00
2022-10-17T20:35:09.304Z,102705.81
2022-10-17T20:37:41.560Z,102712.84
2022-10-17T20:40:33.522Z,102718.75
2022-10-17T20:42:57.811Z,102717.47
2022-10-17T20:45:37.520Z,102719.38
2022-10-17T20:48:15.167Z,102710.03
2022-10-17T20:50:44.668Z,102725.63
2022-10-17T20:56:18.040Z,102740.13
2022-10-17T20:58:44.651Z,102742.34
2022-10-17T21:01:11.330Z,102749.59
2022-10-17T21:03:42.349Z,102755.00
2022-10-17T21:06:12.660Z,102762.00
2022-10-17T21:08:39.362Z,102760.66
2022-10-17T21:11:15.509Z,102768.69
2022-10-17T21:13:42.547Z,102762.28
2022-10-17T21:16:12.262Z,102759.09
2022-10-17T21:18:39.425Z,102768.72
2022-10-17T21:21:15.368Z,102776.78
2022-10-17T21:23:44.530Z,102778.66
2022-10-17T21:26:14.538Z,102770.66
2022-10-17T21:28:42.202Z,102774.13
2022-10-17T21:31:12.608Z,102769.03
2022-10-17T21:33:40.322Z,102762.88
2022-10-17T21:36:07.780Z,102776.28
2022-10-17T21:38:36.323Z,102778.69
2022-10-17T21:41:03.879Z,102767.72
2022-10-17T21:43:30.989Z,102768.00
2022-10-17T21:46:02.168Z,102767.47
2022-10-17T21:48:28.853Z,102763.44
2022-10-17T21:51:02.694Z,102765.59
2022-10-17T21:53:29.612Z,102760.75
2022-10-17T21:55:59.945Z,102768.28
2022-10-17T21:58:26.961Z,102773.09
2022-10-17T22:00:53.746Z,102769.09
2022-10-17T22:03:20.884Z,102773.38
2022-10-17T22:05:47.548Z,102776.34
2022-10-17T22:08:14.108Z,102780.38
2022-10-17T22:10:40.963Z,102776.34
2022-10-17T22:13:10.404Z,102788.13
2022-10-17T22:15:37.079Z,102786.25
2022-10-17T22:18:03.802Z,102788.41
2022-10-17T22:20:30.385Z,102787.06
2022-10-17T22:22:57.063Z,102792.69
2022-10-17T22:25:23.615Z,102791.38
2022-10-17T22:27:50.222Z,102787.09
2022-10-17T22:30:16.876Z,102784.94
2022-10-17T22:32:44.010Z,102798.59
2022-10-17T22:35:10.540Z,102793.78
2022-10-17T22:37:37.282Z,102799.41
2022-10-17T22:40:05.638Z,102790.56
2022-10-17T22:42:34.421Z,102792.72
2022-10-17T22:45:04.910Z,102799.94
2022-10-17T22:47:31.861Z,102794.31
2022-10-17T22:49:58.665Z,102799.41
2022-10-17T22:52:25.199Z,102800.19
2022-10-17T22:54:52.042Z,102805.28
2022-10-17T22:57:18.503Z,102810.63
2022-10-17T22:59:46.413Z,102801.28
2022-10-17T23:02:13.079Z,102801.00
2022-10-17T23:04:39.630Z,102802.31
2022-10-17T23:07:11.239Z,102798.84
2022-10-17T23:09:38.041Z,102806.88
2022-10-17T23:12:05.015Z,102809.81
2022-10-17T23:14:31.615Z,102805.56
2022-10-17T23:16:58.092Z,102805.56
2022-10-17T23:19:24.695Z,102814.63
2022-10-17T23:21:51.187Z,102810.38
2022-10-17T23:24:20.485Z,102807.94
2022-10-17T23:26:47.107Z,102819.72
2022-10-17T23:29:13.812Z,102815.91
2022-10-17T23:31:40.377Z,102818.06
2022-10-17T23:34:07.128Z,102815.91
2022-10-17T23:36:33.802Z,102817.53
2022-10-17T23:39:00.545Z,102813.50
2022-10-17T23:41:27.143Z,102810.03
2022-10-17T23:43:53.724Z,102808.16
2022-10-17T23:46:22.143Z,102814.84
2022-10-17T23:48:48.717Z,102814.00
2022-10-17T23:51:15.516Z,102812.44
2022-10-17T23:53:42.540Z,102805.44
2022-10-17T23:56:10.209Z,102808.94
2022-10-17T23:58:37.436Z,102812.44
